createdAt,value
2017-07-03T00:00:47.212Z,0
2017-07-03T00:01:48.775Z,0
2017-07-03T00:02:50.419Z,0
2017-07-03T00:03:52.078Z,0
2017-07-03T00:04:53.730Z,0
2017-07-03T00:05:55.293Z,0
2017-07-03T00:06:57.028Z,0
2017-07-03T00:07:58.626Z,0
2017-07-03T00:09:00.254Z,0
2017-07-03T00:10:01.708Z,0
2017-07-03T00:11:03.182Z,0
2017-07-03T00:12:04.824Z,0
2017-07-03T00:13:06.407Z,0
2017-07-03T00:14:08.044Z,0
2017-07-03T00:15:09.667Z,0
2017-07-03T00:16:11.233Z,0
2017-07-03T00:17:12.830Z,0
2017-07-03T00:18:14.425Z,0
2017-07-03T00:19:16.051Z,0
2017-07-03T00:20:17.586Z,0
2017-07-03T00:21:19.169Z,0
2017-07-03T00:22:20.739Z,0
2017-07-03T00:23:22.331Z,0
2017-07-03T00:24:23.979Z,0
2017-07-03T00:25:25.508Z,0
2017-07-03T00:26:27.035Z,0
2017-07-03T00:27:28.636Z,0
2017-07-03T00:28:30.260Z,0
2017-07-03T00:29:31.914Z,0
2017-07-03T00:30:33.491Z,0
2017-07-03T00:31:35.057Z,0
2017-07-03T00:32:36.652Z,0
2017-07-03T00:33:38.262Z,0
2017-07-03T00:34:39.842Z,0
2017-07-03T00:35:41.415Z,0
2017-07-03T00:36:42.996Z,0
2017-07-03T00:37:44.629Z,0
2017-07-03T00:38:46.236Z,0
2017-07-03T00:39:47.755Z,0
2017-07-03T00:40:49.300Z,0
2017-07-03T00:41:50.910Z,0
2017-07-03T00:42:52.469Z,0
2017-07-03T00:43:54.220Z,0
2017-07-03T00:44:55.690Z,0
2017-07-03T00:45:57.322Z,0
2017-07-03T00:46:58.847Z,0
2017-07-03T00:48:00.462Z,0
2017-07-03T00:49:02.148Z,0
2017-07-03T00:50:03.752Z,0
2017-07-03T00:51:05.391Z,0
2017-07-03T00:52:06.993Z,0
2017-07-03T00:53:08.599Z,0
2017-07-03T00:54:10.192Z,0
2017-07-03T00:55:11.873Z,0
2017-07-03T00:56:13.548Z,0
2017-07-03T00:57:15.156Z,0
2017-07-03T00:58:16.800Z,0
2017-07-03T00:59:18.422Z,0
2017-07-03T01:00:20.098Z,0
2017-07-03T01:01:21.699Z,0
2017-07-03T01:02:23.294Z,0
2017-07-03T01:03:24.985Z,0
2017-07-03T01:04:26.590Z,0
2017-07-03T01:05:28.261Z,0
2017-07-03T01:06:29.813Z,0
2017-07-03T01:07:31.411Z,0
2017-07-03T01:08:32.981Z,0
2017-07-03T01:09:34.557Z,0
2017-07-03T01:10:36.123Z,0
2017-07-03T01:11:37.807Z,0
2017-07-03T01:12:40.228Z,0
2017-07-03T01:13:41.888Z,0
2017-07-03T01:14:43.337Z,0
2017-07-03T01:15:44.920Z,0
2017-07-03T01:16:46.520Z,0
2017-07-03T01:17:48.071Z,0
2017-07-03T01:18:49.692Z,0
2017-07-03T01:19:51.284Z,0
2017-07-03T01:20:52.881Z,0
2017-07-03T01:21:54.461Z,0
2017-07-03T01:22:56.058Z,0
2017-07-03T01:23:57.654Z,0
2017-07-03T01:24:59.239Z,0
2017-07-03T01:26:00.832Z,0
2017-07-03T01:27:02.524Z,0
2017-07-03T01:28:04.175Z,0
2017-07-03T01:29:05.778Z,0
2017-07-03T01:30:07.331Z,0
2017-07-03T01:31:08.891Z,0
2017-07-03T01:32:10.516Z,0
2017-07-03T01:33:12.049Z,0
2017-07-03T01:34:13.509Z,0
2017-07-03T01:35:15.107Z,0
2017-07-03T01:36:16.761Z,0
2017-07-03T01:37:18.317Z,0
2017-07-03T01:38:19.911Z,0
2017-07-03T01:39:21.532Z,0
2017-07-03T01:40:23.160Z,0
2017-07-03T01:41:24.663Z,0
2017-07-03T01:42:26.298Z,0
2017-07-03T01:43:27.884Z,0
2017-07-03T01:44:29.477Z,0
2017-07-03T01:45:31.052Z,0
2017-07-03T01:46:32.645Z,0
2017-07-03T01:47:34.227Z,0
2017-07-03T01:48:35.777Z,0
2017-07-03T01:49:37.371Z,0
2017-07-03T01:50:39.010Z,0
2017-07-03T01:51:40.625Z,0
2017-07-03T01:52:42.192Z,0
2017-07-03T01:53:43.782Z,0
2017-07-03T01:54:45.303Z,0
2017-07-03T01:55:46.887Z,0
2017-07-03T01:56:48.541Z,0
2017-07-03T01:57:50.161Z,0
2017-07-03T01:58:51.762Z,0
2017-07-03T01:59:53.414Z,0
2017-07-03T02:00:55.091Z,0
2017-07-03T02:01:56.715Z,0
2017-07-03T02:02:58.281Z,0
2017-07-03T02:03:59.852Z,0
2017-07-03T02:05:01.402Z,0
2017-07-03T02:06:03.024Z,0
2017-07-03T02:07:04.618Z,0
2017-07-03T02:08:06.270Z,0
2017-07-03T02:09:07.871Z,0
2017-07-03T02:10:09.500Z,0
2017-07-03T02:11:11.088Z,0
2017-07-03T02:12:12.673Z,4
2017-07-03T02:13:14.252Z,4
2017-07-03T02:14:15.900Z,4
2017-07-03T02:15:17.454Z,4
2017-07-03T02:16:19.074Z,4
2017-07-03T02:17:20.681Z,4
2017-07-03T02:18:22.305Z,0
2017-07-03T02:19:23.939Z,0
2017-07-03T02:20:25.574Z,0
2017-07-03T02:21:27.140Z,0
2017-07-03T02:22:28.693Z,4
2017-07-03T02:23:30.255Z,4
2017-07-03T02:24:31.871Z,4
2017-07-03T02:25:33.449Z,0
2017-07-03T02:26:35.127Z,4
2017-07-03T02:27:36.850Z,8
2017-07-03T02:28:38.406Z,4
2017-07-03T02:29:39.975Z,8
2017-07-03T02:30:41.549Z,8
2017-07-03T02:31:43.041Z,8
2017-07-03T02:32:44.613Z,12
2017-07-03T02:33:46.210Z,12
2017-07-03T02:34:47.777Z,12
2017-07-03T02:35:49.446Z,12
2017-07-03T02:36:51.027Z,16
2017-07-03T02:37:52.591Z,16
2017-07-03T02:38:54.208Z,20
2017-07-03T02:39:55.754Z,24
2017-07-03T02:40:57.353Z,28
2017-07-03T02:41:58.876Z,28
2017-07-03T02:43:00.694Z,32
2017-07-03T02:44:02.342Z,36
2017-07-03T02:45:04.004Z,44
2017-07-03T02:46:05.584Z,48
2017-07-03T02:47:07.272Z,52
2017-07-03T02:48:08.967Z,56
2017-07-03T02:49:12.032Z,60
2017-07-03T02:50:15.283Z,64
2017-07-03T02:51:16.993Z,72
2017-07-03T02:52:18.656Z,76
2017-07-03T02:53:20.177Z,88
2017-07-03T02:54:21.804Z,92
2017-07-03T02:55:23.503Z,104
2017-07-03T02:56:25.251Z,112
2017-07-03T02:57:26.860Z,128
2017-07-03T02:58:28.490Z,148
2017-07-03T02:59:30.555Z,164
2017-07-03T03:00:32.858Z,184
2017-07-03T03:01:34.584Z,200
2017-07-03T03:02:36.411Z,220
2017-07-03T03:03:38.041Z,244
2017-07-03T03:04:39.809Z,264
2017-07-03T03:05:41.454Z,288
2017-07-03T03:06:43.061Z,300
2017-07-03T03:07:44.655Z,296
2017-07-03T03:08:46.285Z,288
2017-07-03T03:09:47.907Z,272
2017-07-03T03:10:49.608Z,256
2017-07-03T03:11:51.551Z,244
2017-07-03T03:12:53.751Z,232
2017-07-03T03:13:55.907Z,228
2017-07-03T03:14:57.816Z,244
2017-07-03T03:15:59.347Z,284
2017-07-03T03:17:02.048Z,336
2017-07-03T03:18:04.413Z,396
2017-07-03T03:19:06.129Z,472
2017-07-03T03:20:07.777Z,540
2017-07-03T03:21:09.325Z,620
2017-07-03T03:22:10.923Z,700
2017-07-03T03:23:12.509Z,784
2017-07-03T03:24:14.134Z,864
2017-07-03T03:25:15.593Z,936
2017-07-03T03:26:17.109Z,1012
2017-07-03T03:27:18.734Z,1092
2017-07-03T03:28:20.363Z,1168
2017-07-03T03:29:21.991Z,1252
2017-07-03T03:30:23.599Z,1328
2017-07-03T03:31:25.284Z,1412
2017-07-03T03:32:26.897Z,1492
2017-07-03T03:33:28.581Z,1580
2017-07-03T03:34:30.194Z,1676
2017-07-03T03:35:31.832Z,1788
2017-07-03T03:36:33.412Z,1892
2017-07-03T03:37:35.118Z,2020
2017-07-03T03:38:36.775Z,2188
2017-07-03T03:39:38.364Z,2372
2017-07-03T03:40:40.019Z,2624
2017-07-03T03:41:41.604Z,3056
2017-07-03T03:42:43.308Z,3472
2017-07-03T03:43:44.922Z,3652
2017-07-03T03:44:46.554Z,3612
2017-07-03T03:45:48.029Z,3572
2017-07-03T03:46:49.607Z,3668
2017-07-03T03:47:51.217Z,3668
2017-07-03T03:48:52.811Z,3716
2017-07-03T03:49:54.517Z,3772
2017-07-03T03:50:56.104Z,3868
2017-07-03T03:51:57.861Z,3964
2017-07-03T03:52:59.545Z,3964
2017-07-03T03:54:01.010Z,3764
2017-07-03T03:55:02.622Z,3584
2017-07-03T03:56:04.261Z,3508
2017-07-03T03:57:05.826Z,3568
2017-07-03T03:58:07.436Z,3624
2017-07-03T03:59:08.980Z,3752
2017-07-03T04:00:10.552Z,3928
2017-07-03T04:01:12.173Z,4128
2017-07-03T04:02:13.724Z,4404
2017-07-03T04:03:15.288Z,4736
2017-07-03T04:04:16.901Z,5076
2017-07-03T04:05:18.489Z,5336
2017-07-03T04:06:20.060Z,5616
2017-07-03T04:07:21.670Z,6048
2017-07-03T04:08:23.292Z,6332
2017-07-03T04:09:24.910Z,6428
2017-07-03T04:10:26.535Z,6468
2017-07-03T04:11:28.074Z,6292
2017-07-03T04:12:29.685Z,5912
2017-07-03T04:13:31.312Z,5512
2017-07-03T04:14:32.896Z,5640
2017-07-03T04:15:34.507Z,5728
2017-07-03T04:16:36.096Z,5552
2017-07-03T04:17:37.689Z,5412
2017-07-03T04:18:39.258Z,5432
2017-07-03T04:19:40.882Z,5704
2017-07-03T04:20:42.437Z,5908
2017-07-03T04:21:44.020Z,6184
2017-07-03T04:22:45.550Z,6352
2017-07-03T04:23:47.138Z,6432
2017-07-03T04:24:48.741Z,6208
2017-07-03T04:25:50.394Z,5996
2017-07-03T04:26:51.974Z,5972
2017-07-03T04:27:53.588Z,6200
2017-07-03T04:28:55.279Z,6488
2017-07-03T04:29:56.861Z,6612
2017-07-03T04:30:58.401Z,6636
2017-07-03T04:32:00.048Z,6720
2017-07-03T04:33:01.528Z,6836
2017-07-03T04:34:03.149Z,7120
2017-07-03T04:35:04.747Z,7436
2017-07-03T04:36:06.347Z,7728
2017-07-03T04:37:08.021Z,7940
2017-07-03T04:38:09.680Z,8032
2017-07-03T04:39:11.324Z,8164
2017-07-03T04:40:13.104Z,8424
2017-07-03T04:41:14.701Z,8684
2017-07-03T04:42:16.303Z,8780
2017-07-03T04:43:17.886Z,8824
2017-07-03T04:44:19.473Z,8880
2017-07-03T04:45:21.120Z,9040
2017-07-03T04:46:22.706Z,9056
2017-07-03T04:47:24.325Z,9124
2017-07-03T04:48:25.941Z,9320
2017-07-03T04:49:27.601Z,9488
2017-07-03T04:50:29.199Z,9644
2017-07-03T04:51:30.782Z,9736
2017-07-03T04:52:32.372Z,9796
2017-07-03T04:53:33.933Z,9928
2017-07-03T04:54:35.554Z,10240
2017-07-03T04:55:37.164Z,10688
2017-07-03T04:56:38.773Z,11192
2017-07-03T04:57:40.413Z,11704
2017-07-03T04:58:42.036Z,12584
2017-07-03T04:59:43.606Z,17568
2017-07-03T05:00:45.237Z,18368
2017-07-03T05:01:46.737Z,9576
2017-07-03T05:02:48.223Z,9392
2017-07-03T05:03:49.883Z,9276
2017-07-03T05:04:51.497Z,8936
2017-07-03T05:05:53.131Z,8896
2017-07-03T05:06:54.886Z,10048
2017-07-03T05:07:56.473Z,20672
2017-07-03T05:08:58.117Z,39552
2017-07-03T05:09:59.733Z,41920
2017-07-03T05:11:01.314Z,40640
2017-07-03T05:12:03.030Z,35904
2017-07-03T05:13:04.674Z,32608
2017-07-03T05:14:06.228Z,30880
2017-07-03T05:15:07.979Z,28512
2017-07-03T05:16:09.596Z,27200
2017-07-03T05:17:11.237Z,26624
2017-07-03T05:18:12.818Z,26624
2017-07-03T05:19:14.270Z,26528
2017-07-03T05:20:15.850Z,30688
2017-07-03T05:21:17.430Z,35296
2017-07-03T05:22:19.077Z,36128
2017-07-03T05:23:20.698Z,39040
2017-07-03T05:24:22.326Z,39488
2017-07-03T05:25:23.924Z,42656
2017-07-03T05:26:25.558Z,67712
2017-07-03T05:27:27.172Z,85504
2017-07-03T05:28:28.750Z,76960
2017-07-03T05:29:30.444Z,65056
2017-07-03T05:30:32.044Z,50400
2017-07-03T05:31:33.614Z,60416
2017-07-03T05:32:35.297Z,23936
2017-07-03T05:33:36.935Z,67648
2017-07-03T05:34:38.682Z,39552
2017-07-03T05:35:40.231Z,73280
2017-07-03T05:36:41.715Z,49472
2017-07-03T05:37:43.212Z,68608
2017-07-03T05:38:44.788Z,66560
2017-07-03T05:39:46.326Z,34144
2017-07-03T05:40:47.898Z,14624
2017-07-03T05:41:49.450Z,19776
2017-07-03T05:42:51.038Z,18304
2017-07-03T05:43:52.585Z,19776
2017-07-03T05:44:54.299Z,19712
2017-07-03T05:45:55.925Z,69664
2017-07-03T05:46:57.562Z,55712
2017-07-03T05:47:59.235Z,15364
2017-07-03T05:49:00.844Z,12756
2017-07-03T05:50:02.487Z,12332
2017-07-03T05:51:04.245Z,13124
2017-07-03T05:52:05.960Z,16580
2017-07-03T05:53:07.623Z,44384
2017-07-03T05:54:09.287Z,73568
2017-07-03T05:55:10.937Z,70016
2017-07-03T05:56:12.437Z,18336
2017-07-03T05:57:13.912Z,18880
2017-07-03T05:58:15.532Z,16980
2017-07-03T05:59:17.122Z,72096
2017-07-03T06:00:18.705Z,44288
2017-07-03T06:01:20.277Z,45440
2017-07-03T06:02:21.761Z,45088
2017-07-03T06:03:23.234Z,84512
2017-07-03T06:04:24.916Z,81568
2017-07-03T06:05:26.549Z,81344
2017-07-03T06:06:28.105Z,74656
2017-07-03T06:07:29.705Z,70144
2017-07-03T06:08:31.262Z,75808
2017-07-03T06:09:32.921Z,80608
2017-07-03T06:10:34.575Z,83072
2017-07-03T06:11:36.212Z,80480
2017-07-03T06:12:37.841Z,78304
2017-07-03T06:13:39.311Z,78080
2017-07-03T06:14:40.925Z,78912
2017-07-03T06:15:42.499Z,81632
2017-07-03T06:16:44.057Z,81824
2017-07-03T06:17:45.656Z,82976
2017-07-03T06:18:47.257Z,82272
2017-07-03T06:19:48.982Z,69888
2017-07-03T06:20:50.730Z,80800
2017-07-03T06:21:52.335Z,83616
2017-07-03T06:22:53.824Z,80992
2017-07-03T06:23:55.587Z,83040
2017-07-03T06:24:57.294Z,81472
2017-07-03T06:25:59.072Z,79360
2017-07-03T06:27:00.900Z,77440
2017-07-03T06:28:02.686Z,66912
2017-07-03T06:29:04.259Z,82528
2017-07-03T06:30:06.076Z,83392
2017-07-03T06:31:07.789Z,86912
2017-07-03T06:32:09.385Z,86368
2017-07-03T06:33:11.139Z,81504
2017-07-03T06:34:12.890Z,84448
2017-07-03T06:35:14.489Z,91200
2017-07-03T06:36:16.271Z,89632
2017-07-03T06:37:17.982Z,88832
2017-07-03T06:38:19.535Z,92192
2017-07-03T06:39:21.051Z,91808
2017-07-03T06:40:22.757Z,37504
2017-07-03T06:41:24.555Z,73344
2017-07-03T06:42:26.322Z,87680
2017-07-03T06:43:28.091Z,86784
2017-07-03T06:44:29.806Z,85408
2017-07-03T06:45:31.397Z,84800
2017-07-03T06:46:33.162Z,84736
2017-07-03T06:47:34.915Z,82784
2017-07-03T06:48:36.692Z,83680
2017-07-03T06:49:38.568Z,85152
2017-07-03T06:50:40.289Z,85984
2017-07-03T06:51:42.043Z,69696
2017-07-03T06:52:43.842Z,90304
2017-07-03T06:53:45.673Z,78592
2017-07-03T06:54:47.447Z,91200
2017-07-03T06:55:49.172Z,93824
2017-07-03T06:56:50.799Z,95648
2017-07-03T06:57:52.524Z,97120
2017-07-03T06:58:54.355Z,94784
2017-07-03T06:59:56.063Z,94016
2017-07-03T07:00:57.779Z,93536
2017-07-03T07:01:59.375Z,90240
2017-07-03T07:03:01.193Z,88064
2017-07-03T07:04:03.039Z,89952
2017-07-03T07:05:04.833Z,95104
2017-07-03T07:06:06.407Z,96064
2017-07-03T07:07:08.081Z,99168
2017-07-03T07:08:09.871Z,81504
2017-07-03T07:09:11.607Z,102048
2017-07-03T07:10:13.402Z,97728
2017-07-03T07:11:15.161Z,97696
2017-07-03T07:12:16.750Z,98112
2017-07-03T07:13:18.318Z,99456
2017-07-03T07:14:20.067Z,103232
2017-07-03T07:15:21.662Z,105344
2017-07-03T07:16:23.476Z,98624
2017-07-03T07:17:24.997Z,98272
2017-07-03T07:18:26.591Z,98752
2017-07-03T07:19:28.324Z,75232
2017-07-03T07:20:30.049Z,94816
2017-07-03T07:21:31.758Z,98560
2017-07-03T07:22:33.459Z,96992
2017-07-03T07:23:35.224Z,95360
2017-07-03T07:24:36.893Z,83808
2017-07-03T07:25:38.600Z,101632
2017-07-03T07:26:40.310Z,101312
2017-07-03T07:27:41.890Z,101600
2017-07-03T07:28:43.756Z,103680
2017-07-03T07:29:45.474Z,104704
2017-07-03T07:30:47.205Z,83936
2017-07-03T07:31:49.038Z,87200
2017-07-03T07:32:50.739Z,103360
2017-07-03T07:33:52.477Z,99616
2017-07-03T07:34:54.193Z,97728
2017-07-03T07:35:55.956Z,101088
2017-07-03T07:36:57.748Z,98624
2017-07-03T07:37:59.412Z,95424
2017-07-03T07:39:01.088Z,68928
2017-07-03T07:40:02.901Z,100160
2017-07-03T07:41:04.611Z,101120
2017-07-03T07:42:06.394Z,102912
2017-07-03T07:43:08.236Z,107040
2017-07-03T07:44:09.984Z,101120
2017-07-03T07:45:11.670Z,87232
2017-07-03T07:46:13.371Z,46016
2017-07-03T07:47:15.107Z,33312
2017-07-03T07:48:16.670Z,31264
2017-07-03T07:49:18.403Z,46816
2017-07-03T07:50:20.125Z,108864
2017-07-03T07:51:21.814Z,87968
2017-07-03T07:52:23.627Z,114944
2017-07-03T07:53:25.439Z,58560
2017-07-03T07:54:26.980Z,48352
2017-07-03T07:55:28.550Z,113632
2017-07-03T07:56:30.274Z,37216
2017-07-03T07:57:31.899Z,23424
2017-07-03T07:58:33.459Z,26336
2017-07-03T07:59:35.200Z,34848
2017-07-03T08:00:36.888Z,122272
2017-07-03T08:01:38.595Z,116896
2017-07-03T08:02:40.376Z,113952
2017-07-03T08:03:42.028Z,115424
2017-07-03T08:04:43.850Z,119136
2017-07-03T08:05:45.439Z,117472
2017-07-03T08:06:47.165Z,121376
2017-07-03T08:07:48.998Z,126944
2017-07-03T08:08:50.670Z,34816
2017-07-03T08:09:52.480Z,25792
2017-07-03T08:10:54.219Z,39936
2017-07-03T08:11:55.815Z,119360
2017-07-03T08:12:57.576Z,119104
2017-07-03T08:13:59.270Z,117280
2017-07-03T08:15:00.894Z,117248
2017-07-03T08:16:02.651Z,115968
2017-07-03T08:17:04.288Z,117536
2017-07-03T08:18:06.074Z,125984
2017-07-03T08:19:07.650Z,123424
2017-07-03T08:20:09.237Z,119296
2017-07-03T08:21:11.052Z,119968
2017-07-03T08:22:12.804Z,123712
2017-07-03T08:23:14.684Z,125184
2017-07-03T08:24:16.319Z,129408
2017-07-03T08:25:18.097Z,130144
2017-07-03T08:26:19.676Z,128608
2017-07-03T08:27:21.274Z,129280
2017-07-03T08:28:23.028Z,128000
2017-07-03T08:29:24.824Z,126656
2017-07-03T08:30:26.572Z,123520
2017-07-03T08:31:28.337Z,122240
2017-07-03T08:32:30.040Z,113824
2017-07-03T08:33:31.810Z,117696
2017-07-03T08:34:33.473Z,115040
2017-07-03T08:35:35.233Z,114048
2017-07-03T08:36:36.877Z,112672
2017-07-03T08:37:38.504Z,115552
2017-07-03T08:38:40.254Z,99040
2017-07-03T08:39:42.043Z,102976
2017-07-03T08:40:43.832Z,100480
2017-07-03T08:41:45.582Z,100736
2017-07-03T08:42:47.257Z,100512
2017-07-03T08:43:48.978Z,100192
2017-07-03T08:44:50.752Z,98528
2017-07-03T08:45:52.473Z,97632
2017-07-03T08:46:54.215Z,93792
2017-07-03T08:47:55.841Z,92704
2017-07-03T08:48:57.523Z,95104
2017-07-03T08:49:59.022Z,96576
2017-07-03T08:51:00.787Z,92608
2017-07-03T08:52:02.512Z,94496
2017-07-03T08:53:04.206Z,98048
2017-07-03T08:54:06.051Z,100352
2017-07-03T08:55:07.872Z,95360
2017-07-03T08:56:09.654Z,97312
2017-07-03T08:57:11.230Z,95232
2017-07-03T08:58:12.910Z,93664
2017-07-03T08:59:14.752Z,75872
2017-07-03T09:00:16.453Z,59008
2017-07-03T09:01:18.022Z,97216
2017-07-03T09:02:19.877Z,71232
2017-07-03T09:03:21.596Z,28384
2017-07-03T09:04:23.615Z,11628
2017-07-03T09:05:25.462Z,9472
2017-07-03T09:06:27.806Z,8920
2017-07-03T09:07:30.137Z,8784
2017-07-03T09:08:32.015Z,10204
2017-07-03T09:09:33.690Z,8992
2017-07-03T09:10:35.321Z,8544
2017-07-03T09:11:37.256Z,8412
2017-07-03T09:12:39.005Z,8328
2017-07-03T09:13:40.861Z,8272
2017-07-03T09:14:42.615Z,7768
2017-07-03T09:15:44.469Z,7904
2017-07-03T09:16:46.267Z,7904
2017-07-03T09:17:47.918Z,7852
2017-07-03T09:18:49.658Z,7772
2017-07-03T09:19:51.387Z,7760
2017-07-03T09:20:53.112Z,7808
2017-07-03T09:21:54.986Z,7704
2017-07-03T09:22:56.745Z,7720
2017-07-03T09:23:58.471Z,7604
2017-07-03T09:25:00.229Z,7520
2017-07-03T09:26:01.964Z,7344
2017-07-03T09:27:03.732Z,7376
2017-07-03T09:28:05.470Z,7324
2017-07-03T09:29:07.169Z,7320
2017-07-03T09:30:08.927Z,7308
2017-07-03T09:31:10.664Z,7336
2017-07-03T09:32:12.402Z,7344
2017-07-03T09:33:14.165Z,7316
2017-07-03T09:34:15.847Z,7332
2017-07-03T09:35:17.392Z,7324
2017-07-03T09:36:19.132Z,7384
2017-07-03T09:37:20.871Z,7340
2017-07-03T09:38:22.572Z,7412
2017-07-03T09:39:24.351Z,7472
2017-07-03T09:40:26.171Z,7512
2017-07-03T09:41:27.920Z,7620
2017-07-03T09:42:29.668Z,7892
2017-07-03T09:43:31.372Z,8028
2017-07-03T09:44:33.001Z,8308
2017-07-03T09:45:34.778Z,8536
2017-07-03T09:46:36.327Z,8532
2017-07-03T09:47:38.079Z,8336
2017-07-03T09:48:39.558Z,8216
2017-07-03T09:49:41.300Z,8804
2017-07-03T09:50:43.077Z,9060
2017-07-03T09:51:44.798Z,8840
2017-07-03T09:52:46.369Z,8936
2017-07-03T09:53:48.017Z,9300
2017-07-03T09:54:49.761Z,10884
2017-07-03T09:55:51.453Z,10808
2017-07-03T09:56:53.124Z,9376
2017-07-03T09:57:55.043Z,8224
2017-07-03T09:58:56.710Z,7664
2017-07-03T09:59:58.289Z,7504
2017-07-03T10:00:59.933Z,7400
2017-07-03T10:02:01.708Z,7844
2017-07-03T10:03:03.281Z,8476
2017-07-03T10:04:05.029Z,9384
2017-07-03T10:05:06.779Z,10480
2017-07-03T10:06:08.494Z,10780
2017-07-03T10:07:10.073Z,11276
2017-07-03T10:08:11.719Z,9936
2017-07-03T10:09:13.428Z,7948
2017-07-03T10:10:15.208Z,7460
2017-07-03T10:11:16.907Z,7632
2017-07-03T10:12:18.690Z,7672
2017-07-03T10:13:20.369Z,7632
2017-07-03T10:14:22.160Z,8168
2017-07-03T10:15:23.893Z,8284
2017-07-03T10:16:25.597Z,8064
2017-07-03T10:17:27.352Z,7752
2017-07-03T10:18:29.117Z,7656
2017-07-03T10:19:30.853Z,7540
2017-07-03T10:20:32.618Z,7928
2017-07-03T10:21:34.397Z,9020
2017-07-03T10:22:36.130Z,8932
2017-07-03T10:23:37.700Z,7468
2017-07-03T10:24:39.254Z,7720
2017-07-03T10:25:40.980Z,9948
2017-07-03T10:26:42.613Z,10948
2017-07-03T10:27:44.294Z,10080
2017-07-03T10:28:46.152Z,8728
2017-07-03T10:29:47.845Z,8272
2017-07-03T10:30:49.607Z,8420
2017-07-03T10:31:51.308Z,8320
2017-07-03T10:32:53.055Z,8296
2017-07-03T10:33:55.019Z,8692
2017-07-03T10:34:56.706Z,9096
2017-07-03T10:35:58.405Z,8844
2017-07-03T10:37:00.130Z,8352
2017-07-03T10:38:01.880Z,8104
2017-07-03T10:39:03.625Z,7988
2017-07-03T10:40:05.322Z,8056
2017-07-03T10:41:07.055Z,9412
2017-07-03T10:42:08.647Z,10600
2017-07-03T10:43:10.368Z,10144
2017-07-03T10:44:12.174Z,10900
2017-07-03T10:45:13.736Z,11128
2017-07-03T10:46:15.323Z,11096
2017-07-03T10:47:16.876Z,10220
2017-07-03T10:48:18.627Z,8460
2017-07-03T10:49:20.365Z,8992
2017-07-03T10:50:22.105Z,10004
2017-07-03T10:51:23.939Z,11172
2017-07-03T10:52:25.773Z,11128
2017-07-03T10:53:27.420Z,10732
2017-07-03T10:54:29.140Z,10160
2017-07-03T10:55:30.628Z,9396
2017-07-03T10:56:32.357Z,8504
2017-07-03T10:57:34.124Z,7952
2017-07-03T10:58:35.863Z,7652
2017-07-03T10:59:37.416Z,7524
2017-07-03T11:00:39.154Z,7956
2017-07-03T11:01:40.731Z,9188
2017-07-03T11:02:42.305Z,9988
2017-07-03T11:03:43.886Z,9864
2017-07-03T11:04:45.672Z,9076
2017-07-03T11:05:47.228Z,9252
2017-07-03T11:06:48.914Z,8768
2017-07-03T11:07:50.681Z,8476
2017-07-03T11:08:52.409Z,7908
2017-07-03T11:09:54.143Z,7300
2017-07-03T11:10:55.891Z,7032
2017-07-03T11:11:57.405Z,6868
2017-07-03T11:12:59.068Z,6704
2017-07-03T11:14:00.665Z,6616
2017-07-03T11:15:02.409Z,6392
2017-07-03T11:16:04.142Z,6332
2017-07-03T11:17:05.919Z,7080
2017-07-03T11:18:07.715Z,7184
2017-07-03T11:19:09.437Z,7028
2017-07-03T11:20:11.019Z,6956
2017-07-03T11:21:12.678Z,6688
2017-07-03T11:22:14.417Z,6420
2017-07-03T11:23:16.202Z,6320
2017-07-03T11:24:17.854Z,6316
2017-07-03T11:25:19.614Z,6152
2017-07-03T11:26:21.334Z,6168
2017-07-03T11:27:23.042Z,6116
2017-07-03T11:28:24.787Z,6208
2017-07-03T11:29:26.569Z,6936
2017-07-03T11:30:28.158Z,6628
2017-07-03T11:31:29.845Z,6700
2017-07-03T11:32:31.532Z,6980
2017-07-03T11:33:33.114Z,6408
2017-07-03T11:34:34.842Z,6296
2017-07-03T11:35:36.642Z,6368
2017-07-03T11:36:38.383Z,6512
2017-07-03T11:37:39.986Z,6672
2017-07-03T11:38:41.823Z,5976
2017-07-03T11:39:43.533Z,7644
2017-07-03T11:40:45.249Z,7276
2017-07-03T11:41:46.926Z,7744
2017-07-03T11:42:48.703Z,7116
2017-07-03T11:43:50.259Z,7544
2017-07-03T11:44:52.003Z,9144
2017-07-03T11:45:53.714Z,8600
2017-07-03T11:46:55.459Z,8020
2017-07-03T11:47:57.263Z,7500
2017-07-03T11:48:59.045Z,7128
2017-07-03T11:50:00.766Z,7148
2017-07-03T11:51:02.355Z,7028
2017-07-03T11:52:03.939Z,6788
2017-07-03T11:53:05.681Z,6580
2017-07-03T11:54:07.410Z,6388
2017-07-03T11:55:09.132Z,6232
2017-07-03T11:56:10.827Z,6220
2017-07-03T11:57:12.435Z,6168
2017-07-03T11:58:14.238Z,6144
2017-07-03T11:59:15.989Z,6080
2017-07-03T12:00:17.691Z,6024
2017-07-03T12:01:19.440Z,5984
2017-07-03T12:02:21.164Z,5968
2017-07-03T12:03:22.956Z,6356
2017-07-03T12:04:24.778Z,6196
2017-07-03T12:05:26.524Z,6064
2017-07-03T12:06:28.072Z,5888
2017-07-03T12:07:29.637Z,5960
2017-07-03T12:08:31.344Z,5892
2017-07-03T12:09:33.204Z,6512
2017-07-03T12:10:34.897Z,6992
2017-07-03T12:11:36.638Z,6668
2017-07-03T12:12:38.350Z,6504
2017-07-03T12:13:40.084Z,6372
2017-07-03T12:14:41.658Z,6324
2017-07-03T12:15:43.399Z,6272
2017-07-03T12:16:45.160Z,6252
2017-07-03T12:17:46.843Z,6212
2017-07-03T12:18:48.559Z,6148
2017-07-03T12:19:50.160Z,6064
2017-07-03T12:20:51.866Z,6052
2017-07-03T12:21:53.630Z,7160
2017-07-03T12:22:55.252Z,6992
2017-07-03T12:23:57.070Z,6936
2017-07-03T12:24:58.812Z,6892
2017-07-03T12:26:00.498Z,6756
2017-07-03T12:27:02.294Z,6608
2017-07-03T12:28:03.931Z,6616
2017-07-03T12:29:05.520Z,6868
2017-07-03T12:30:07.050Z,7000
2017-07-03T12:31:08.655Z,6740
2017-07-03T12:32:10.269Z,7224
2017-07-03T12:33:12.011Z,8124
2017-07-03T12:34:13.807Z,8208
2017-07-03T12:35:15.487Z,8380
2017-07-03T12:36:17.169Z,8056
2017-07-03T12:37:18.787Z,7884
2017-07-03T12:38:20.531Z,7664
2017-07-03T12:39:22.255Z,7472
2017-07-03T12:40:23.838Z,7556
2017-07-03T12:41:25.324Z,8268
2017-07-03T12:42:27.139Z,8356
2017-07-03T12:43:28.982Z,7844
2017-07-03T12:44:30.691Z,7460
2017-07-03T12:45:32.478Z,7172
2017-07-03T12:46:34.255Z,7024
2017-07-03T12:47:35.781Z,6204
2017-07-03T12:48:37.529Z,6300
2017-07-03T12:49:39.210Z,6332
2017-07-03T12:50:40.771Z,8632
2017-07-03T12:51:42.531Z,8972
2017-07-03T12:52:44.291Z,10640
2017-07-03T12:53:46.036Z,11148
2017-07-03T12:54:47.619Z,9028
2017-07-03T12:55:49.375Z,8932
2017-07-03T12:56:50.988Z,8976
2017-07-03T12:57:52.730Z,8048
2017-07-03T12:58:54.456Z,8192
2017-07-03T12:59:56.253Z,7856
2017-07-03T13:00:57.947Z,7220
2017-07-03T13:01:59.701Z,7156
2017-07-03T13:03:01.426Z,7608
2017-07-03T13:04:03.201Z,7792
2017-07-03T13:05:04.922Z,7280
2017-07-03T13:06:06.619Z,6784
2017-07-03T13:07:08.383Z,6736
2017-07-03T13:08:09.970Z,6804
2017-07-03T13:09:11.693Z,6844
2017-07-03T13:10:13.345Z,7160
2017-07-03T13:11:15.149Z,7412
2017-07-03T13:12:16.936Z,7488
2017-07-03T13:13:18.621Z,8048
2017-07-03T13:14:20.389Z,7864
2017-07-03T13:15:22.057Z,7480
2017-07-03T13:16:23.797Z,7612
2017-07-03T13:17:25.642Z,7576
2017-07-03T13:18:27.115Z,7636
2017-07-03T13:19:28.882Z,7920
2017-07-03T13:20:30.576Z,7700
2017-07-03T13:21:32.299Z,7392
2017-07-03T13:22:34.109Z,7144
2017-07-03T13:23:35.810Z,7008
2017-07-03T13:24:37.532Z,6764
2017-07-03T13:25:39.260Z,6548
2017-07-03T13:26:40.819Z,6424
2017-07-03T13:27:42.594Z,6264
2017-07-03T13:28:44.287Z,6148
2017-07-03T13:29:46.089Z,6004
2017-07-03T13:30:47.802Z,5948
2017-07-03T13:31:49.682Z,6040
2017-07-03T13:32:51.445Z,6096
2017-07-03T13:33:53.121Z,6396
2017-07-03T13:34:54.929Z,6636
2017-07-03T13:35:56.694Z,7660
2017-07-03T13:36:58.433Z,8116
2017-07-03T13:38:00.145Z,7900
2017-07-03T13:39:01.936Z,7840
2017-07-03T13:40:03.687Z,7716
2017-07-03T13:41:05.416Z,7320
2017-07-03T13:42:07.146Z,7016
2017-07-03T13:43:08.835Z,7012
2017-07-03T13:44:10.614Z,7136
2017-07-03T13:45:12.324Z,7384
2017-07-03T13:46:13.900Z,7036
2017-07-03T13:47:15.651Z,8148
2017-07-03T13:48:17.400Z,10392